sensor_id;sensor_type;location;lat;lon;timestamp;P1;durP1;ratioP1;P2;durP2;ratioP2
35562;SDS011;21665;40.108;18.302;2024-03-29T00:02:22;29.42;;;9.32;;
35562;SDS011;21665;40.108;18.302;2024-03-29T00:04:49;27.63;;;9.25;;
35562;SDS011;21665;40.108;18.302;2024-03-29T00:07:15;29.42;;;8.95;;
35562;SDS011;21665;40.108;18.302;2024-03-29T00:09:41;24.10;;;8.68;;
35562;SDS011;21665;40.108;18.302;2024-03-29T00:12:10;27.92;;;9.32;;
35562;SDS011;21665;40.108;18.302;2024-03-29T00:14:38;36.10;;;9.82;;
35562;SDS011;21665;40.108;18.302;2024-03-29T00:17:05;27.85;;;9.30;;
35562;SDS011;21665;40.108;18.302;2024-03-29T00:19:32;25.38;;;9.25;;
35562;SDS011;21665;40.108;18.302;2024-03-29T00:21:58;21.05;;;9.23;;
35562;SDS011;21665;40.108;18.302;2024-03-29T00:24:24;34.92;;;9.98;;
35562;SDS011;21665;40.108;18.302;2024-03-29T00:26:50;28.83;;;9.88;;
35562;SDS011;21665;40.108;18.302;2024-03-29T00:29:17;23.35;;;9.18;;
35562;SDS011;21665;40.108;18.302;2024-03-29T00:31:43;18.05;;;9.27;;
35562;SDS011;21665;40.108;18.302;2024-03-29T00:34:09;21.98;;;9.23;;
35562;SDS011;21665;40.108;18.302;2024-03-29T00:36:35;19.17;;;8.45;;
35562;SDS011;21665;40.108;18.302;2024-03-29T00:39:02;18.70;;;8.68;;
35562;SDS011;21665;40.108;18.302;2024-03-29T00:41:28;23.52;;;9.52;;
35562;SDS011;21665;40.108;18.302;2024-03-29T00:43:54;22.13;;;9.15;;
35562;SDS011;21665;40.108;18.302;2024-03-29T00:46:21;28.60;;;9.10;;
35562;SDS011;21665;40.108;18.302;2024-03-29T00:48:47;26.60;;;9.50;;
35562;SDS011;21665;40.108;18.302;2024-03-29T00:51:13;31.17;;;8.90;;
35562;SDS011;21665;40.108;18.302;2024-03-29T00:53:40;18.38;;;8.32;;
35562;SDS011;21665;40.108;18.302;2024-03-29T00:56:06;27.38;;;9.15;;
35562;SDS011;21665;40.108;18.302;2024-03-29T00:58:32;34.53;;;9.85;;
35562;SDS011;21665;40.108;18.302;2024-03-29T01:00:58;19.02;;;9.10;;
35562;SDS011;21665;40.108;18.302;2024-03-29T01:03:25;21.58;;;9.70;;
35562;SDS011;21665;40.108;18.302;2024-03-29T01:05:54;27.38;;;9.32;;
35562;SDS011;21665;40.108;18.302;2024-03-29T01:08:20;22.67;;;9.40;;
35562;SDS011;21665;40.108;18.302;2024-03-29T01:10:48;27.90;;;9.80;;
35562;SDS011;21665;40.108;18.302;2024-03-29T01:13:15;27.77;;;9.68;;
35562;SDS011;21665;40.108;18.302;2024-03-29T01:15:41;22.15;;;9.68;;
35562;SDS011;21665;40.108;18.302;2024-03-29T01:18:07;24.92;;;9.60;;
35562;SDS011;21665;40.108;18.302;2024-03-29T01:20:36;25.67;;;9.40;;
35562;SDS011;21665;40.108;18.302;2024-03-29T01:23:02;30.65;;;9.60;;
35562;SDS011;21665;40.108;18.302;2024-03-29T01:25:29;26.25;;;9.80;;
35562;SDS011;21665;40.108;18.302;2024-03-29T01:27:55;25.75;;;9.88;;
35562;SDS011;21665;40.108;18.302;2024-03-29T01:30:21;25.13;;;10.32;;
35562;SDS011;21665;40.108;18.302;2024-03-29T01:32:48;33.67;;;10.45;;
35562;SDS011;21665;40.108;18.302;2024-03-29T01:35:14;29.35;;;9.82;;
35562;SDS011;21665;40.108;18.302;2024-03-29T01:37:41;24.65;;;9.15;;
35562;SDS011;21665;40.108;18.302;2024-03-29T01:40:07;25.60;;;9.77;;
35562;SDS011;21665;40.108;18.302;2024-03-29T01:42:35;29.10;;;10.27;;
35562;SDS011;21665;40.108;18.302;2024-03-29T01:45:02;23.23;;;10.52;;
35562;SDS011;21665;40.108;18.302;2024-03-29T01:47:29;30.85;;;10.70;;
35562;SDS011;21665;40.108;18.302;2024-03-29T01:49:56;28.33;;;9.77;;
35562;SDS011;21665;40.108;18.302;2024-03-29T01:52:23;25.17;;;10.52;;
35562;SDS011;21665;40.108;18.302;2024-03-29T01:54:52;26.55;;;9.80;;
35562;SDS011;21665;40.108;18.302;2024-03-29T01:57:19;24.38;;;9.85;;
35562;SDS011;21665;40.108;18.302;2024-03-29T01:59:46;26.05;;;9.80;;
35562;SDS011;21665;40.108;18.302;2024-03-29T02:02:13;24.15;;;10.07;;
35562;SDS011;21665;40.108;18.302;2024-03-29T02:04:40;22.98;;;9.40;;
35562;SDS011;21665;40.108;18.302;2024-03-29T02:07:08;26.88;;;10.60;;
35562;SDS011;21665;40.108;18.302;2024-03-29T02:09:34;26.98;;;10.63;;
35562;SDS011;21665;40.108;18.302;2024-03-29T02:12:01;33.20;;;10.63;;
35562;SDS011;21665;40.108;18.302;2024-03-29T02:14:27;31.90;;;10.38;;
35562;SDS011;21665;40.108;18.302;2024-03-29T02:16:57;22.75;;;9.07;;
35562;SDS011;21665;40.108;18.302;2024-03-29T02:19:23;23.77;;;10.05;;
35562;SDS011;21665;40.108;18.302;2024-03-29T02:21:49;30.50;;;9.63;;
35562;SDS011;21665;40.108;18.302;2024-03-29T02:24:23;16.65;;;9.40;;
35562;SDS011;21665;40.108;18.302;2024-03-29T02:26:53;27.05;;;9.50;;
35562;SDS011;21665;40.108;18.302;2024-03-29T02:29:22;20.40;;;9.55;;
35562;SDS011;21665;40.108;18.302;2024-03-29T02:31:50;30.02;;;9.30;;
35562;SDS011;21665;40.108;18.302;2024-03-29T02:34:16;22.33;;;9.45;;
35562;SDS011;21665;40.108;18.302;2024-03-29T02:36:44;18.02;;;9.10;;
35562;SDS011;21665;40.108;18.302;2024-03-29T02:39:11;19.67;;;8.85;;
35562;SDS011;21665;40.108;18.302;2024-03-29T02:41:40;23.48;;;8.88;;
35562;SDS011;21665;40.108;18.302;2024-03-29T02:44:06;20.55;;;9.75;;
35562;SDS011;21665;40.108;18.302;2024-03-29T02:46:33;29.48;;;9.43;;
35562;SDS011;21665;40.108;18.302;2024-03-29T02:48:59;22.83;;;9.00;;
35562;SDS011;21665;40.108;18.302;2024-03-29T02:51:25;29.40;;;9.27;;
35562;SDS011;21665;40.108;18.302;2024-03-29T02:53:52;26.17;;;9.10;;
35562;SDS011;21665;40.108;18.302;2024-03-29T02:56:18;23.17;;;9.05;;
35562;SDS011;21665;40.108;18.302;2024-03-29T02:58:47;18.08;;;8.95;;
35562;SDS011;21665;40.108;18.302;2024-03-29T03:01:14;25.15;;;9.43;;
35562;SDS011;21665;40.108;18.302;2024-03-29T03:03:40;26.55;;;9.75;;
35562;SDS011;21665;40.108;18.302;2024-03-29T03:06:06;24.90;;;9.77;;
35562;SDS011;21665;40.108;18.302;2024-03-29T03:08:33;23.00;;;9.05;;
35562;SDS011;21665;40.108;18.302;2024-03-29T03:11:18;13.52;;;8.50;;
35562;SDS011;21665;40.108;18.302;2024-03-29T03:13:47;20.73;;;9.68;;
35562;SDS011;21665;40.108;18.302;2024-03-29T03:16:14;20.48;;;8.90;;
35562;SDS011;21665;40.108;18.302;2024-03-29T03:18:40;21.60;;;8.70;;
35562;SDS011;21665;40.108;18.302;2024-03-29T03:21:06;19.80;;;8.55;;
35562;SDS011;21665;40.108;18.302;2024-03-29T03:23:35;21.38;;;8.45;;
35562;SDS011;21665;40.108;18.302;2024-03-29T03:26:05;29.42;;;9.20;;
35562;SDS011;21665;40.108;18.302;2024-03-29T03:28:31;19.58;;;9.50;;
35562;SDS011;21665;40.108;18.302;2024-03-29T03:30:58;24.33;;;8.25;;
35562;SDS011;21665;40.108;18.302;2024-03-29T03:33:24;18.73;;;8.80;;
35562;SDS011;21665;40.108;18.302;2024-03-29T03:35:50;18.45;;;8.27;;
35562;SDS011;21665;40.108;18.302;2024-03-29T03:38:17;15.65;;;8.10;;
35562;SDS011;21665;40.108;18.302;2024-03-29T03:40:43;17.13;;;8.70;;
35562;SDS011;21665;40.108;18.302;2024-03-29T03:43:09;16.13;;;8.85;;
35562;SDS011;21665;40.108;18.302;2024-03-29T03:45:36;21.75;;;8.63;;
35562;SDS011;21665;40.108;18.302;2024-03-29T03:48:05;23.40;;;9.23;;
35562;SDS011;21665;40.108;18.302;2024-03-29T03:50:33;10.10;;;8.43;;
35562;SDS011;21665;40.108;18.302;2024-03-29T03:52:59;18.45;;;9.18;;
35562;SDS011;21665;40.108;18.302;2024-03-29T03:55:26;26.05;;;10.45;;
35562;SDS011;21665;40.108;18.302;2024-03-29T03:57:53;27.77;;;10.35;;
35562;SDS011;21665;40.108;18.302;2024-03-29T04:00:22;23.02;;;10.18;;
35562;SDS011;21665;40.108;18.302;2024-03-29T04:02:50;20.88;;;11.02;;
35562;SDS011;21665;40.108;18.302;2024-03-29T04:05:17;33.63;;;11.57;;
35562;SDS011;21665;40.108;18.302;2024-03-29T04:07:47;35.08;;;11.85;;
35562;SDS011;21665;40.108;18.302;2024-03-29T04:10:14;17.20;;;10.95;;
35562;SDS011;21665;40.108;18.302;2024-03-29T04:12:41;21.98;;;11.18;;
35562;SDS011;21665;40.108;18.302;2024-03-29T04:15:07;26.65;;;11.68;;
35562;SDS011;21665;40.108;18.302;2024-03-29T04:17:34;14.95;;;10.88;;
35562;SDS011;21665;40.108;18.302;2024-03-29T04:20:01;20.70;;;11.20;;
35562;SDS011;21665;40.108;18.302;2024-03-29T04:22:28;33.00;;;11.60;;
35562;SDS011;21665;40.108;18.302;2024-03-29T04:24:55;31.85;;;12.15;;
35562;SDS011;21665;40.108;18.302;2024-03-29T04:27:21;24.48;;;11.85;;
35562;SDS011;21665;40.108;18.302;2024-03-29T04:29:50;25.20;;;12.00;;
35562;SDS011;21665;40.108;18.302;2024-03-29T04:32:20;26.52;;;12.30;;
35562;SDS011;21665;40.108;18.302;2024-03-29T04:34:54;27.08;;;12.35;;
35562;SDS011;21665;40.108;18.302;2024-03-29T04:37:21;23.90;;;12.48;;
35562;SDS011;21665;40.108;18.302;2024-03-29T04:39:47;24.70;;;12.38;;
35562;SDS011;21665;40.108;18.302;2024-03-29T04:42:14;32.08;;;13.45;;
35562;SDS011;21665;40.108;18.302;2024-03-29T04:44:40;27.80;;;14.40;;
35562;SDS011;21665;40.108;18.302;2024-03-29T04:47:07;26.80;;;13.90;;
35562;SDS011;21665;40.108;18.302;2024-03-29T04:49:34;19.02;;;12.95;;
35562;SDS011;21665;40.108;18.302;2024-03-29T04:52:03;25.33;;;13.82;;
35562;SDS011;21665;40.108;18.302;2024-03-29T04:54:30;29.73;;;14.07;;
35562;SDS011;21665;40.108;18.302;2024-03-29T04:56:59;16.25;;;12.77;;
35562;SDS011;21665;40.108;18.302;2024-03-29T04:59:32;19.48;;;13.00;;
35562;SDS011;21665;40.108;18.302;2024-03-29T05:02:02;21.27;;;12.85;;
35562;SDS011;21665;40.108;18.302;2024-03-29T05:04:28;13.57;;;12.23;;
35562;SDS011;21665;40.108;18.302;2024-03-29T05:06:55;18.45;;;12.45;;
35562;SDS011;21665;40.108;18.302;2024-03-29T05:09:24;18.02;;;12.05;;
35562;SDS011;21665;40.108;18.302;2024-03-29T05:11:51;22.42;;;11.73;;
35562;SDS011;21665;40.108;18.302;2024-03-29T05:14:19;26.45;;;12.32;;
35562;SDS011;21665;40.108;18.302;2024-03-29T05:16:46;26.80;;;12.23;;
35562;SDS011;21665;40.108;18.302;2024-03-29T05:19:13;22.73;;;11.43;;
35562;SDS011;21665;40.108;18.302;2024-03-29T05:21:41;21.08;;;11.00;;
35562;SDS011;21665;40.108;18.302;2024-03-29T05:24:08;19.00;;;10.98;;
35562;SDS011;21665;40.108;18.302;2024-03-29T05:26:35;24.65;;;11.20;;
35562;SDS011;21665;40.108;18.302;2024-03-29T05:29:01;19.17;;;9.73;;
35562;SDS011;21665;40.108;18.302;2024-03-29T05:31:29;20.85;;;8.65;;
35562;SDS011;21665;40.108;18.302;2024-03-29T05:33:56;16.05;;;7.07;;
35562;SDS011;21665;40.108;18.302;2024-03-29T05:36:22;20.10;;;6.18;;
35562;SDS011;21665;40.108;18.302;2024-03-29T05:38:49;19.13;;;5.75;;
35562;SDS011;21665;40.108;18.302;2024-03-29T05:41:15;20.77;;;6.47;;
35562;SDS011;21665;40.108;18.302;2024-03-29T05:43:42;14.52;;;7.45;;
35562;SDS011;21665;40.108;18.302;2024-03-29T05:46:11;21.50;;;8.05;;
35562;SDS011;21665;40.108;18.302;2024-03-29T05:48:37;18.48;;;7.57;;
35562;SDS011;21665;40.108;18.302;2024-03-29T05:51:04;16.02;;;6.90;;
35562;SDS011;21665;40.108;18.302;2024-03-29T05:53:30;14.38;;;5.85;;
35562;SDS011;21665;40.108;18.302;2024-03-29T05:55:57;17.25;;;5.95;;
35562;SDS011;21665;40.108;18.302;2024-03-29T05:58:23;18.05;;;5.40;;
35562;SDS011;21665;40.108;18.302;2024-03-29T06:00:49;13.20;;;5.72;;
35562;SDS011;21665;40.108;18.302;2024-03-29T06:03:16;16.85;;;8.30;;
35562;SDS011;21665;40.108;18.302;2024-03-29T06:05:42;18.65;;;11.82;;
35562;SDS011;21665;40.108;18.302;2024-03-29T06:08:09;23.80;;;14.10;;
35562;SDS011;21665;40.108;18.302;2024-03-29T06:10:36;18.67;;;15.50;;
35562;SDS011;21665;40.108;18.302;2024-03-29T06:13:02;27.83;;;16.75;;
35562;SDS011;21665;40.108;18.302;2024-03-29T06:15:53;22.60;;;16.95;;
35562;SDS011;21665;40.108;18.302;2024-03-29T06:18:39;24.63;;;18.40;;
35562;SDS011;21665;40.108;18.302;2024-03-29T06:21:06;21.95;;;17.85;;
35562;SDS011;21665;40.108;18.302;2024-03-29T06:23:33;26.58;;;18.23;;
35562;SDS011;21665;40.108;18.302;2024-03-29T06:25:59;23.48;;;20.33;;
35562;SDS011;21665;40.108;18.302;2024-03-29T06:28:30;27.52;;;22.00;;
35562;SDS011;21665;40.108;18.302;2024-03-29T06:30:57;28.65;;;22.63;;
35562;SDS011;21665;40.108;18.302;2024-03-29T06:33:26;25.30;;;22.50;;
35562;SDS011;21665;40.108;18.302;2024-03-29T06:35:56;24.00;;;21.80;;
35562;SDS011;21665;40.108;18.302;2024-03-29T06:38:22;29.83;;;22.20;;
35562;SDS011;21665;40.108;18.302;2024-03-29T06:40:51;26.42;;;21.77;;
35562;SDS011;21665;40.108;18.302;2024-03-29T06:43:18;31.60;;;22.90;;
35562;SDS011;21665;40.108;18.302;2024-03-29T06:45:44;25.63;;;23.25;;
35562;SDS011;21665;40.108;18.302;2024-03-29T06:48:11;29.15;;;25.25;;
35562;SDS011;21665;40.108;18.302;2024-03-29T06:50:40;29.30;;;26.27;;
35562;SDS011;21665;40.108;18.302;2024-03-29T06:53:10;30.58;;;25.73;;
35562;SDS011;21665;40.108;18.302;2024-03-29T06:55:36;28.10;;;25.38;;
35562;SDS011;21665;40.108;18.302;2024-03-29T06:58:03;28.48;;;25.85;;
35562;SDS011;21665;40.108;18.302;2024-03-29T07:00:29;28.90;;;25.77;;
35562;SDS011;21665;40.108;18.302;2024-03-29T07:02:56;28.77;;;26.02;;
35562;SDS011;21665;40.108;18.302;2024-03-29T07:05:22;27.98;;;25.42;;
35562;SDS011;21665;40.108;18.302;2024-03-29T07:07:49;29.15;;;26.38;;
35562;SDS011;21665;40.108;18.302;2024-03-29T07:10:16;29.10;;;26.27;;
35562;SDS011;21665;40.108;18.302;2024-03-29T07:12:42;29.67;;;26.73;;
35562;SDS011;21665;40.108;18.302;2024-03-29T07:15:09;30.23;;;27.50;;
35562;SDS011;21665;40.108;18.302;2024-03-29T07:17:36;30.45;;;27.30;;
35562;SDS011;21665;40.108;18.302;2024-03-29T07:20:03;28.83;;;26.35;;
35562;SDS011;21665;40.108;18.302;2024-03-29T07:22:31;29.05;;;26.67;;
35562;SDS011;21665;40.108;18.302;2024-03-29T07:24:57;30.10;;;27.00;;
35562;SDS011;21665;40.108;18.302;2024-03-29T07:27:23;29.65;;;26.95;;
35562;SDS011;21665;40.108;18.302;2024-03-29T07:29:51;31.00;;;27.73;;
35562;SDS011;21665;40.108;18.302;2024-03-29T07:32:19;30.73;;;27.50;;
35562;SDS011;21665;40.108;18.302;2024-03-29T07:34:46;29.77;;;27.02;;
35562;SDS011;21665;40.108;18.302;2024-03-29T07:37:12;33.17;;;29.13;;
35562;SDS011;21665;40.108;18.302;2024-03-29T07:39:41;30.95;;;27.70;;
35562;SDS011;21665;40.108;18.302;2024-03-29T07:42:11;31.23;;;28.63;;
35562;SDS011;21665;40.108;18.302;2024-03-29T07:44:38;31.80;;;28.38;;
35562;SDS011;21665;40.108;18.302;2024-03-29T07:47:05;31.85;;;28.83;;
35562;SDS011;21665;40.108;18.302;2024-03-29T07:49:31;32.25;;;29.30;;
35562;SDS011;21665;40.108;18.302;2024-03-29T07:51:58;32.28;;;29.30;;
35562;SDS011;21665;40.108;18.302;2024-03-29T07:54:27;32.15;;;29.08;;
35562;SDS011;21665;40.108;18.302;2024-03-29T07:56:54;33.83;;;30.52;;
35562;SDS011;21665;40.108;18.302;2024-03-29T07:59:21;32.72;;;29.77;;
35562;SDS011;21665;40.108;18.302;2024-03-29T08:01:48;33.50;;;30.30;;
35562;SDS011;21665;40.108;18.302;2024-03-29T08:04:18;33.53;;;30.10;;
35562;SDS011;21665;40.108;18.302;2024-03-29T08:06:44;31.98;;;29.08;;
35562;SDS011;21665;40.108;18.302;2024-03-29T08:09:11;31.55;;;28.95;;
35562;SDS011;21665;40.108;18.302;2024-03-29T08:11:40;34.08;;;30.45;;
35562;SDS011;21665;40.108;18.302;2024-03-29T08:14:07;33.03;;;29.83;;
35562;SDS011;21665;40.108;18.302;2024-03-29T08:16:34;33.13;;;30.05;;
35562;SDS011;21665;40.108;18.302;2024-03-29T08:19:01;33.00;;;29.58;;
35562;SDS011;21665;40.108;18.302;2024-03-29T08:21:27;32.80;;;30.20;;
35562;SDS011;21665;40.108;18.302;2024-03-29T08:23:55;33.15;;;30.17;;
35562;SDS011;21665;40.108;18.302;2024-03-29T08:26:22;34.67;;;30.90;;
35562;SDS011;21665;40.108;18.302;2024-03-29T08:28:49;33.33;;;30.50;;
35562;SDS011;21665;40.108;18.302;2024-03-29T08:31:18;34.38;;;31.13;;
35562;SDS011;21665;40.108;18.302;2024-03-29T08:33:44;34.70;;;31.42;;
35562;SDS011;21665;40.108;18.302;2024-03-29T08:36:11;33.72;;;30.65;;
35562;SDS011;21665;40.108;18.302;2024-03-29T08:38:39;33.70;;;30.13;;
35562;SDS011;21665;40.108;18.302;2024-03-29T08:41:15;32.90;;;29.38;;
35562;SDS011;21665;40.108;18.302;2024-03-29T08:43:52;31.38;;;28.65;;
35562;SDS011;21665;40.108;18.302;2024-03-29T08:46:18;31.90;;;28.70;;
35562;SDS011;21665;40.108;18.302;2024-03-29T08:48:45;31.33;;;28.13;;
35562;SDS011;21665;40.108;18.302;2024-03-29T08:51:11;32.42;;;29.45;;
35562;SDS011;21665;40.108;18.302;2024-03-29T08:53:40;33.75;;;30.40;;
35562;SDS011;21665;40.108;18.302;2024-03-29T08:56:07;33.40;;;30.33;;
35562;SDS011;21665;40.108;18.302;2024-03-29T08:58:33;32.40;;;29.38;;
35562;SDS011;21665;40.108;18.302;2024-03-29T09:00:59;32.55;;;29.35;;
35562;SDS011;21665;40.108;18.302;2024-03-29T09:03:29;34.60;;;28.75;;
35562;SDS011;21665;40.108;18.302;2024-03-29T09:05:57;30.45;;;27.27;;
35562;SDS011;21665;40.108;18.302;2024-03-29T09:08:27;35.22;;;26.90;;
35562;SDS011;21665;40.108;18.302;2024-03-29T09:10:53;30.30;;;26.70;;
35562;SDS011;21665;40.108;18.302;2024-03-29T09:13:20;28.67;;;25.05;;
35562;SDS011;21665;40.108;18.302;2024-03-29T09:15:46;27.83;;;24.83;;
35562;SDS011;21665;40.108;18.302;2024-03-29T09:18:14;27.90;;;25.05;;
35562;SDS011;21665;40.108;18.302;2024-03-29T09:20:58;30.75;;;25.05;;
35562;SDS011;21665;40.108;18.302;2024-03-29T09:23:27;28.52;;;25.55;;
35562;SDS011;21665;40.108;18.302;2024-03-29T09:25:57;27.58;;;24.65;;
35562;SDS011;21665;40.108;18.302;2024-03-29T09:28:24;28.25;;;25.42;;
35562;SDS011;21665;40.108;18.302;2024-03-29T09:30:56;28.35;;;24.60;;
35562;SDS011;21665;40.108;18.302;2024-03-29T09:33:29;26.77;;;24.40;;
35562;SDS011;21665;40.108;18.302;2024-03-29T09:35:55;27.83;;;24.95;;
35562;SDS011;21665;40.108;18.302;2024-03-29T09:38:27;32.55;;;25.75;;
35562;SDS011;21665;40.108;18.302;2024-03-29T09:43:35;27.25;;;24.15;;
35562;SDS011;21665;40.108;18.302;2024-03-29T09:46:02;28.48;;;24.15;;
35562;SDS011;21665;40.108;18.302;2024-03-29T09:48:29;27.02;;;24.45;;
35562;SDS011;21665;40.108;18.302;2024-03-29T09:51:05;25.75;;;23.38;;
35562;SDS011;21665;40.108;18.302;2024-03-29T09:53:35;26.42;;;23.33;;
35562;SDS011;21665;40.108;18.302;2024-03-29T09:56:03;28.08;;;23.50;;
35562;SDS011;21665;40.108;18.302;2024-03-29T09:58:36;27.90;;;25.08;;
35562;SDS011;21665;40.108;18.302;2024-03-29T10:01:04;26.90;;;24.40;;
35562;SDS011;21665;40.108;18.302;2024-03-29T10:03:39;26.30;;;23.73;;
35562;SDS011;21665;40.108;18.302;2024-03-29T10:06:34;28.92;;;23.50;;
35562;SDS011;21665;40.108;18.302;2024-03-29T10:09:01;24.77;;;22.13;;
35562;SDS011;21665;40.108;18.302;2024-03-29T10:11:30;28.92;;;21.38;;
35562;SDS011;21665;40.108;18.302;2024-03-29T10:14:00;24.15;;;21.23;;
35562;SDS011;21665;40.108;18.302;2024-03-29T10:16:29;24.17;;;21.73;;
35562;SDS011;21665;40.108;18.302;2024-03-29T10:19:00;26.35;;;22.98;;
35562;SDS011;21665;40.108;18.302;2024-03-29T10:21:26;25.15;;;22.35;;
35562;SDS011;21665;40.108;18.302;2024-03-29T10:23:53;27.50;;;22.90;;
35562;SDS011;21665;40.108;18.302;2024-03-29T10:26:20;24.30;;;22.00;;
35562;SDS011;21665;40.108;18.302;2024-03-29T10:28:47;24.23;;;21.83;;
35562;SDS011;21665;40.108;18.302;2024-03-29T10:31:17;25.98;;;23.00;;
35562;SDS011;21665;40.108;18.302;2024-03-29T10:33:45;26.73;;;21.90;;
35562;SDS011;21665;40.108;18.302;2024-03-29T10:36:13;28.42;;;23.25;;
35562;SDS011;21665;40.108;18.302;2024-03-29T10:38:41;25.42;;;22.95;;
35562;SDS011;21665;40.108;18.302;2024-03-29T10:41:07;26.30;;;23.33;;
35562;SDS011;21665;40.108;18.302;2024-03-29T10:43:34;26.65;;;23.75;;
35562;SDS011;21665;40.108;18.302;2024-03-29T10:46:00;27.13;;;24.25;;
35562;SDS011;21665;40.108;18.302;2024-03-29T10:48:29;27.00;;;24.23;;
35562;SDS011;21665;40.108;18.302;2024-03-29T10:51:01;25.63;;;23.25;;
35562;SDS011;21665;40.108;18.302;2024-03-29T10:53:32;23.83;;;21.38;;
35562;SDS011;21665;40.108;18.302;2024-03-29T10:56:02;24.55;;;21.45;;
35562;SDS011;21665;40.108;18.302;2024-03-29T10:58:35;23.88;;;21.58;;
35562;SDS011;21665;40.108;18.302;2024-03-29T11:01:04;27.33;;;21.83;;
35562;SDS011;21665;40.108;18.302;2024-03-29T11:03:40;30.48;;;22.23;;
35562;SDS011;21665;40.108;18.302;2024-03-29T11:06:23;23.33;;;21.10;;
35562;SDS011;21665;40.108;18.302;2024-03-29T11:08:53;27.25;;;22.92;;
35562;SDS011;21665;40.108;18.302;2024-03-29T11:11:21;25.90;;;23.35;;
35562;SDS011;21665;40.108;18.302;2024-03-29T11:16:27;26.58;;;23.73;;
35562;SDS011;21665;40.108;18.302;2024-03-29T11:18:55;27.60;;;23.83;;
35562;SDS011;21665;40.108;18.302;2024-03-29T11:21:23;25.85;;;23.40;;
35562;SDS011;21665;40.108;18.302;2024-03-29T11:23:54;26.35;;;23.65;;
35562;SDS011;21665;40.108;18.302;2024-03-29T11:26:27;26.40;;;23.83;;
35562;SDS011;21665;40.108;18.302;2024-03-29T11:28:57;25.80;;;23.42;;
35562;SDS011;21665;40.108;18.302;2024-03-29T11:31:25;29.63;;;24.35;;
35562;SDS011;21665;40.108;18.302;2024-03-29T11:33:52;26.20;;;23.95;;
35562;SDS011;21665;40.108;18.302;2024-03-29T11:36:28;27.60;;;24.48;;
35562;SDS011;21665;40.108;18.302;2024-03-29T11:38:57;27.00;;;24.27;;
35562;SDS011;21665;40.108;18.302;2024-03-29T11:41:25;27.95;;;24.25;;
35562;SDS011;21665;40.108;18.302;2024-03-29T11:43:56;27.75;;;25.05;;
35562;SDS011;21665;40.108;18.302;2024-03-29T11:46:24;26.88;;;24.05;;
35562;SDS011;21665;40.108;18.302;2024-03-29T11:48:51;27.20;;;23.95;;
35562;SDS011;21665;40.108;18.302;2024-03-29T11:51:19;26.95;;;24.05;;
35562;SDS011;21665;40.108;18.302;2024-03-29T11:53:49;27.48;;;24.42;;
35562;SDS011;21665;40.108;18.302;2024-03-29T11:56:20;26.60;;;24.02;;
35562;SDS011;21665;40.108;18.302;2024-03-29T11:58:47;27.55;;;24.38;;
35562;SDS011;21665;40.108;18.302;2024-03-29T12:01:14;26.73;;;24.00;;
35562;SDS011;21665;40.108;18.302;2024-03-29T12:03:42;27.48;;;24.92;;
35562;SDS011;21665;40.108;18.302;2024-03-29T12:06:09;27.10;;;24.40;;
35562;SDS011;21665;40.108;18.302;2024-03-29T12:08:39;27.23;;;24.10;;
35562;SDS011;21665;40.108;18.302;2024-03-29T12:11:08;26.10;;;23.75;;
35562;SDS011;21665;40.108;18.302;2024-03-29T12:13:35;28.27;;;25.67;;
35562;SDS011;21665;40.108;18.302;2024-03-29T12:16:02;26.88;;;24.25;;
35562;SDS011;21665;40.108;18.302;2024-03-29T12:18:29;31.48;;;24.50;;
35562;SDS011;21665;40.108;18.302;2024-03-29T12:20:57;26.38;;;24.02;;
35562;SDS011;21665;40.108;18.302;2024-03-29T12:23:24;26.17;;;24.10;;
35562;SDS011;21665;40.108;18.302;2024-03-29T12:25:54;27.80;;;24.88;;
35562;SDS011;21665;40.108;18.302;2024-03-29T12:28:23;27.75;;;25.05;;
35562;SDS011;21665;40.108;18.302;2024-03-29T12:30:51;27.95;;;25.23;;
35562;SDS011;21665;40.108;18.302;2024-03-29T12:33:22;28.80;;;25.38;;
35562;SDS011;21665;40.108;18.302;2024-03-29T12:35:50;27.30;;;24.73;;
35562;SDS011;21665;40.108;18.302;2024-03-29T12:38:20;27.85;;;25.30;;
35562;SDS011;21665;40.108;18.302;2024-03-29T12:40:47;27.65;;;24.95;;
35562;SDS011;21665;40.108;18.302;2024-03-29T12:43:22;29.83;;;26.10;;
35562;SDS011;21665;40.108;18.302;2024-03-29T12:45:50;29.25;;;26.40;;
35562;SDS011;21665;40.108;18.302;2024-03-29T12:48:18;27.95;;;25.00;;
35562;SDS011;21665;40.108;18.302;2024-03-29T12:50:46;27.73;;;24.77;;
35562;SDS011;21665;40.108;18.302;2024-03-29T12:53:13;27.95;;;24.95;;
35562;SDS011;21665;40.108;18.302;2024-03-29T12:55:42;32.38;;;24.55;;
35562;SDS011;21665;40.108;18.302;2024-03-29T12:58:17;27.38;;;24.45;;
35562;SDS011;21665;40.108;18.302;2024-03-29T13:00:47;27.75;;;24.98;;
35562;SDS011;21665;40.108;18.302;2024-03-29T13:03:14;28.52;;;25.13;;
35562;SDS011;21665;40.108;18.302;2024-03-29T13:05:41;27.25;;;24.75;;
35562;SDS011;21665;40.108;18.302;2024-03-29T13:08:08;25.95;;;23.60;;
35562;SDS011;21665;40.108;18.302;2024-03-29T13:10:42;28.00;;;24.23;;
35562;SDS011;21665;40.108;18.302;2024-03-29T13:13:11;28.05;;;24.98;;
35562;SDS011;21665;40.108;18.302;2024-03-29T13:15:38;29.48;;;23.85;;
35562;SDS011;21665;40.108;18.302;2024-03-29T13:18:07;27.48;;;23.63;;
35562;SDS011;21665;40.108;18.302;2024-03-29T13:20:35;27.45;;;24.73;;
35562;SDS011;21665;40.108;18.302;2024-03-29T13:23:07;29.47;;;24.97;;
35562;SDS011;21665;40.108;18.302;2024-03-29T13:25:34;29.65;;;25.15;;
35562;SDS011;21665;40.108;18.302;2024-03-29T13:28:01;27.40;;;24.42;;
35562;SDS011;21665;40.108;18.302;2024-03-29T13:30:28;26.45;;;23.73;;
35562;SDS011;21665;40.108;18.302;2024-03-29T13:32:55;27.45;;;24.80;;
35562;SDS011;21665;40.108;18.302;2024-03-29T13:35:22;27.42;;;24.75;;
35562;SDS011;21665;40.108;18.302;2024-03-29T13:37:50;27.40;;;25.27;;
35562;SDS011;21665;40.108;18.302;2024-03-29T13:40:21;26.55;;;24.35;;
35562;SDS011;21665;40.108;18.302;2024-03-29T13:42:52;26.45;;;24.05;;
35562;SDS011;21665;40.108;18.302;2024-03-29T13:45:19;27.75;;;25.27;;
35562;SDS011;21665;40.108;18.302;2024-03-29T13:47:46;31.20;;;25.23;;
35562;SDS011;21665;40.108;18.302;2024-03-29T13:50:14;28.50;;;25.58;;
35562;SDS011;21665;40.108;18.302;2024-03-29T13:52:41;29.05;;;26.05;;
35562;SDS011;21665;40.108;18.302;2024-03-29T13:55:09;27.80;;;25.23;;
35562;SDS011;21665;40.108;18.302;2024-03-29T13:57:36;27.95;;;24.90;;
35562;SDS011;21665;40.108;18.302;2024-03-29T14:00:04;28.05;;;25.50;;
35562;SDS011;21665;40.108;18.302;2024-03-29T14:02:32;28.35;;;25.52;;
35562;SDS011;21665;40.108;18.302;2024-03-29T14:05:00;29.48;;;26.88;;
35562;SDS011;21665;40.108;18.302;2024-03-29T14:07:27;29.08;;;26.33;;
35562;SDS011;21665;40.108;18.302;2024-03-29T14:09:54;28.67;;;25.65;;
35562;SDS011;21665;40.108;18.302;2024-03-29T14:12:21;29.17;;;26.17;;
35562;SDS011;21665;40.108;18.302;2024-03-29T14:14:53;29.23;;;26.40;;
35562;SDS011;21665;40.108;18.302;2024-03-29T14:17:20;29.90;;;26.88;;
35562;SDS011;21665;40.108;18.302;2024-03-29T14:19:47;29.25;;;26.52;;
35562;SDS011;21665;40.108;18.302;2024-03-29T14:22:15;29.20;;;26.13;;
35562;SDS011;21665;40.108;18.302;2024-03-29T14:24:44;29.20;;;26.42;;